sensor_id;sensor_type;location;lat;lon;timestamp;pressure;altitude;pressure_sealevel;temperature;humidity
41040;BME280;48586;50.122;18.972;2023-02-13T00:01:18;100585.03;;;2.14;66.64
41040;BME280;48586;50.122;18.972;2023-02-13T00:03:26;100594.84;;;2.12;66.34
41040;BME280;48586;50.122;18.972;2023-02-13T00:05:31;100582.66;;;2.11;66.49
41040;BME280;48586;50.122;18.972;2023-02-13T00:07:36;100590.31;;;2.14;66.37
41040;BME280;48586;50.122;18.972;2023-02-13T00:09:42;100587.69;;;2.14;66.54
41040;BME280;48586;50.122;18.972;2023-02-13T00:11:46;100596.53;;;2.13;66.45
41040;BME280;48586;50.122;18.972;2023-02-13T00:13:51;100591.38;;;2.11;66.79
41040;BME280;48586;50.122;18.972;2023-02-13T00:15:58;100587.91;;;2.11;66.62
41040;BME280;48586;50.122;18.972;2023-02-13T00:18:05;100593.06;;;2.12;66.83
41040;BME280;48586;50.122;18.972;2023-02-13T00:20:12;100591.38;;;2.11;66.76
41040;BME280;48586;50.122;18.972;2023-02-13T00:22:17;100590.44;;;2.12;66.57
41040;BME280;48586;50.122;18.972;2023-02-13T00:24:22;100591.28;;;2.13;67.02
41040;BME280;48586;50.122;18.972;2023-02-13T00:26:27;100591.13;;;2.14;66.88
41040;BME280;48586;50.122;18.972;2023-02-13T00:28:32;100596.25;;;2.16;67.00
41040;BME280;48586;50.122;18.972;2023-02-13T00:30:37;100597.22;;;2.15;66.64
41040;BME280;48586;50.122;18.972;2023-02-13T00:32:41;100595.94;;;2.09;67.02
41040;BME280;48586;50.122;18.972;2023-02-13T00:34:46;100597.28;;;2.04;67.28
41040;BME280;48586;50.122;18.972;2023-02-13T00:36:53;100588.81;;;2.00;67.33
41040;BME280;48586;50.122;18.972;2023-02-13T00:38:58;100589.75;;;1.99;67.69
41040;BME280;48586;50.122;18.972;2023-02-13T00:41:04;100588.91;;;1.98;67.42
41040;BME280;48586;50.122;18.972;2023-02-13T00:43:10;100579.22;;;1.99;67.71
41040;BME280;48586;50.122;18.972;2023-02-13T00:45:15;100587.84;;;2.01;67.89
41040;BME280;48586;50.122;18.972;2023-02-13T00:47:22;100586.44;;;1.97;67.59
41040;BME280;48586;50.122;18.972;2023-02-13T00:49:26;100582.13;;;1.96;68.14
41040;BME280;48586;50.122;18.972;2023-02-13T00:51:31;100573.53;;;1.94;67.86
41040;BME280;48586;50.122;18.972;2023-02-13T00:53:40;100590.72;;;1.98;67.72
41040;BME280;48586;50.122;18.972;2023-02-13T00:55:45;100582.13;;;1.96;67.89
41040;BME280;48586;50.122;18.972;2023-02-13T00:57:50;100587.25;;;1.97;68.10
41040;BME280;48586;50.122;18.972;2023-02-13T00:59:58;100579.38;;;1.97;67.78
41040;BME280;48586;50.122;18.972;2023-02-13T01:02:03;100586.56;;;1.95;67.95
41040;BME280;48586;50.122;18.972;2023-02-13T01:04:07;100581.41;;;1.94;68.18
41040;BME280;48586;50.122;18.972;2023-02-13T01:06:13;100583.66;;;1.98;68.38
41040;BME280;48586;50.122;18.972;2023-02-13T01:08:19;100577.19;;;2.03;68.35
41040;BME280;48586;50.122;18.972;2023-02-13T01:10:27;100571.09;;;2.02;67.99
41040;BME280;48586;50.122;18.972;2023-02-13T01:12:32;100580.41;;;2.06;68.33
41040;BME280;48586;50.122;18.972;2023-02-13T01:14:37;100577.16;;;2.14;68.29
41040;BME280;48586;50.122;18.972;2023-02-13T01:16:42;100575.13;;;2.17;68.02
41040;BME280;48586;50.122;18.972;2023-02-13T01:18:47;100578.34;;;2.21;67.99
41040;BME280;48586;50.122;18.972;2023-02-13T01:20:56;100569.09;;;2.27;68.10
41040;BME280;48586;50.122;18.972;2023-02-13T01:23:04;100570.38;;;2.32;67.42
41040;BME280;48586;50.122;18.972;2023-02-13T01:25:09;100566.66;;;2.35;67.44
41040;BME280;48586;50.122;18.972;2023-02-13T01:27:16;100559.69;;;2.34;67.69
41040;BME280;48586;50.122;18.972;2023-02-13T01:29:21;100557.66;;;2.37;67.52
41040;BME280;48586;50.122;18.972;2023-02-13T01:31:27;100558.63;;;2.36;67.67
41040;BME280;48586;50.122;18.972;2023-02-13T01:33:31;100555.03;;;2.37;67.36
41040;BME280;48586;50.122;18.972;2023-02-13T01:35:38;100554.00;;;2.29;67.72
41040;BME280;48586;50.122;18.972;2023-02-13T01:37:44;100544.84;;;2.23;68.10
41040;BME280;48586;50.122;18.972;2023-02-13T01:39:49;100552.03;;;2.21;68.17
41040;BME280;48586;50.122;18.972;2023-02-13T01:41:54;100551.94;;;2.11;68.67
41040;BME280;48586;50.122;18.972;2023-02-13T01:44:43;100555.09;;;2.05;68.81
41040;BME280;48586;50.122;18.972;2023-02-13T01:46:43;100549.38;;;2.00;69.21
41040;BME280;48586;50.122;18.972;2023-02-13T01:48:50;100542.72;;;1.96;69.45
41040;BME280;48586;50.122;18.972;2023-02-13T01:51:04;100541.88;;;1.95;69.61
41040;BME280;48586;50.122;18.972;2023-02-13T01:53:18;100542.34;;;2.01;69.64
41040;BME280;48586;50.122;18.972;2023-02-13T01:55:30;100542.44;;;1.99;69.62
41040;BME280;48586;50.122;18.972;2023-02-13T01:57:42;100544.38;;;1.97;69.54
41040;BME280;48586;50.122;18.972;2023-02-13T02:00:03;100540.09;;;1.96;69.93
41040;BME280;48586;50.122;18.972;2023-02-13T02:02:20;100538.97;;;1.98;69.88
41040;BME280;48586;50.122;18.972;2023-02-13T02:04:30;100540.78;;;1.98;69.83
41040;BME280;48586;50.122;18.972;2023-02-13T02:06:49;100532.06;;;1.97;69.73
41040;BME280;48586;50.122;18.972;2023-02-13T02:09:05;100534.69;;;1.97;69.88
41040;BME280;48586;50.122;18.972;2023-02-13T02:11:24;100544.38;;;1.97;70.16
41040;BME280;48586;50.122;18.972;2023-02-13T02:13:35;100533.03;;;1.96;70.14
41040;BME280;48586;50.122;18.972;2023-02-13T02:15:49;100538.28;;;1.96;70.24
41040;BME280;48586;50.122;18.972;2023-02-13T02:17:54;100536.03;;;1.92;70.73
41040;BME280;48586;50.122;18.972;2023-02-13T02:20:06;100534.63;;;1.88;70.99
41040;BME280;48586;50.122;18.972;2023-02-13T02:22:54;100519.47;;;1.80;71.23
41040;BME280;48586;50.122;18.972;2023-02-13T02:25:48;100521.41;;;1.78;72.05
41040;BME280;48586;50.122;18.972;2023-02-13T02:28:30;100518.19;;;1.75;71.90
41040;BME280;48586;50.122;18.972;2023-02-13T02:34:23;100517.16;;;1.66;72.62
41040;BME280;48586;50.122;18.972;2023-02-13T02:36:54;100523.38;;;1.65;72.91
41040;BME280;48586;50.122;18.972;2023-02-13T02:39:19;100515.34;;;1.66;73.16
41040;BME280;48586;50.122;18.972;2023-02-13T02:41:45;100520.63;;;1.66;73.12
41040;BME280;48586;50.122;18.972;2023-02-13T02:44:18;100518.81;;;1.67;73.28
41040;BME280;48586;50.122;18.972;2023-02-13T02:46:41;100520.63;;;1.66;73.52
41040;BME280;48586;50.122;18.972;2023-02-13T02:49:15;100508.22;;;1.57;73.52
41040;BME280;48586;50.122;18.972;2023-02-13T02:51:44;100520.84;;;1.63;73.79
41040;BME280;48586;50.122;18.972;2023-02-13T02:54:05;100523.47;;;1.63;74.10
41040;BME280;48586;50.122;18.972;2023-02-13T02:56:36;100524.44;;;1.62;73.93
41040;BME280;48586;50.122;18.972;2023-02-13T02:58:49;100526.25;;;1.62;73.90
41040;BME280;48586;50.122;18.972;2023-02-13T03:01:15;100528.53;;;1.55;74.19
41040;BME280;48586;50.122;18.972;2023-02-13T03:03:37;100535.47;;;1.56;74.25
41040;BME280;48586;50.122;18.972;2023-02-13T03:06:02;100535.31;;;1.58;74.75
41040;BME280;48586;50.122;18.972;2023-02-13T03:08:14;100527.44;;;1.58;74.43
41040;BME280;48586;50.122;18.972;2023-02-13T03:10:40;100532.19;;;1.64;74.71
41040;BME280;48586;50.122;18.972;2023-02-13T03:13:17;100533.03;;;1.64;74.79
41040;BME280;48586;50.122;18.972;2023-02-13T03:15:43;100527.53;;;1.67;74.59
41040;BME280;48586;50.122;18.972;2023-02-13T03:18:01;100532.53;;;1.70;74.26
41040;BME280;48586;50.122;18.972;2023-02-13T03:20:29;100526.19;;;1.73;74.52
41040;BME280;48586;50.122;18.972;2023-02-13T03:23:11;100534.66;;;1.77;74.28
41040;BME280;48586;50.122;18.972;2023-02-13T03:25:27;100532.63;;;1.80;74.33
41040;BME280;48586;50.122;18.972;2023-02-13T03:27:43;100536.06;;;1.81;74.33
41040;BME280;48586;50.122;18.972;2023-02-13T03:30:18;100535.00;;;1.83;74.40
41040;BME280;48586;50.122;18.972;2023-02-13T03:32:38;100534.03;;;1.84;74.27
41040;BME280;48586;50.122;18.972;2023-02-13T03:34:59;100527.13;;;1.83;74.41
41040;BME280;48586;50.122;18.972;2023-02-13T03:37:30;100531.78;;;1.80;74.28
41040;BME280;48586;50.122;18.972;2023-02-13T03:40:07;100530.94;;;1.79;74.86
41040;BME280;48586;50.122;18.972;2023-02-13T03:42:22;100530.72;;;1.82;74.83
41040;BME280;48586;50.122;18.972;2023-02-13T03:44:39;100522.09;;;1.80;74.73
41040;BME280;48586;50.122;18.972;2023-02-13T03:46:51;100524.59;;;1.82;74.86
41040;BME280;48586;50.122;18.972;2023-02-13T03:49:01;100523.19;;;1.78;74.80
41040;BME280;48586;50.122;18.972;2023-02-13T03:51:27;100521.97;;;1.82;74.82
41040;BME280;48586;50.122;18.972;2023-02-13T03:53:40;100524.34;;;1.85;74.80
41040;BME280;48586;50.122;18.972;2023-02-13T03:55:52;100523.13;;;1.89;74.78
41040;BME280;48586;50.122;18.972;2023-02-13T03:58:19;100528.53;;;1.87;74.71
41040;BME280;48586;50.122;18.972;2023-02-13T04:00:48;100531.16;;;1.87;74.81
41040;BME280;48586;50.122;18.972;2023-02-13T04:03:01;100526.59;;;1.89;75.14
41040;BME280;48586;50.122;18.972;2023-02-13T04:05:19;100522.31;;;1.88;74.84
41040;BME280;48586;50.122;18.972;2023-02-13T04:07:26;100531.75;;;1.91;75.03
41040;BME280;48586;50.122;18.972;2023-02-13T04:09:37;100522.06;;;1.91;74.83
41040;BME280;48586;50.122;18.972;2023-02-13T04:11:55;100521.25;;;1.91;74.99
41040;BME280;48586;50.122;18.972;2023-02-13T04:14:14;100521.25;;;1.91;74.95
41040;BME280;48586;50.122;18.972;2023-02-13T04:16:31;100519.16;;;1.94;75.21
41040;BME280;48586;50.122;18.972;2023-02-13T04:18:38;100525.28;;;1.95;74.90
41040;BME280;48586;50.122;18.972;2023-02-13T04:20:44;100516.16;;;1.99;74.89
41040;BME280;48586;50.122;18.972;2023-02-13T04:22:49;100523.69;;;2.04;75.29
41040;BME280;48586;50.122;18.972;2023-02-13T04:24:53;100522.34;;;2.09;75.00
41040;BME280;48586;50.122;18.972;2023-02-13T04:27:00;100525.66;;;2.11;74.65
41040;BME280;48586;50.122;18.972;2023-02-13T04:29:05;100528.19;;;2.13;75.08
41040;BME280;48586;50.122;18.972;2023-02-13T04:31:09;100527.19;;;2.14;74.77
41040;BME280;48586;50.122;18.972;2023-02-13T04:33:13;100532.59;;;2.12;74.44
41040;BME280;48586;50.122;18.972;2023-02-13T04:35:17;100530.91;;;2.11;74.86
41040;BME280;48586;50.122;18.972;2023-02-13T04:37:22;100528.19;;;2.13;74.79
41040;BME280;48586;50.122;18.972;2023-02-13T04:39:27;100527.34;;;2.12;74.77
41040;BME280;48586;50.122;18.972;2023-02-13T04:41:31;100530.66;;;2.14;74.90
41040;BME280;48586;50.122;18.972;2023-02-13T04:43:38;100523.34;;;2.18;74.80
41040;BME280;48586;50.122;18.972;2023-02-13T04:45:47;100525.59;;;2.22;74.60
41040;BME280;48586;50.122;18.972;2023-02-13T04:47:52;100515.53;;;2.28;74.54
41040;BME280;48586;50.122;18.972;2023-02-13T04:49:58;100514.44;;;2.30;74.32
41040;BME280;48586;50.122;18.972;2023-02-13T04:52:02;100513.34;;;2.33;74.12
41040;BME280;48586;50.122;18.972;2023-02-13T04:54:09;100516.41;;;2.38;74.47
41040;BME280;48586;50.122;18.972;2023-02-13T04:56:13;100518.38;;;2.45;74.39
41040;BME280;48586;50.122;18.972;2023-02-13T04:58:18;100516.19;;;2.51;73.67
41040;BME280;48586;50.122;18.972;2023-02-13T05:00:26;100518.44;;;2.55;73.54
41040;BME280;48586;50.122;18.972;2023-02-13T05:02:31;100522.63;;;2.58;72.88
41040;BME280;48586;50.122;18.972;2023-02-13T05:04:36;100523.69;;;2.55;72.80
41040;BME280;48586;50.122;18.972;2023-02-13T05:06:40;100519.81;;;2.49;73.24
41040;BME280;48586;50.122;18.972;2023-02-13T05:08:44;100524.38;;;2.47;73.41
41040;BME280;48586;50.122;18.972;2023-02-13T05:10:49;100518.38;;;2.45;73.28
41040;BME280;48586;50.122;18.972;2023-02-13T05:12:53;100522.81;;;2.45;73.63
41040;BME280;48586;50.122;18.972;2023-02-13T05:14:57;100515.75;;;2.45;73.33
41040;BME280;48586;50.122;18.972;2023-02-13T05:17:05;100515.31;;;2.40;73.44
41040;BME280;48586;50.122;18.972;2023-02-13T05:19:09;100514.34;;;2.41;73.47
41040;BME280;48586;50.122;18.972;2023-02-13T05:21:13;100518.09;;;2.39;73.43
41040;BME280;48586;50.122;18.972;2023-02-13T05:23:30;100521.66;;;2.38;73.70
41040;BME280;48586;50.122;18.972;2023-02-13T05:25:35;100515.31;;;2.40;73.95
41040;BME280;48586;50.122;18.972;2023-02-13T05:27:40;100517.41;;;2.46;73.49
41040;BME280;48586;50.122;18.972;2023-02-13T05:29:45;100513.97;;;2.46;73.27
41040;BME280;48586;50.122;18.972;2023-02-13T05:31:48;100515.31;;;2.40;73.38
41040;BME280;48586;50.122;18.972;2023-02-13T05:33:55;100516.69;;;2.35;73.72
41040;BME280;48586;50.122;18.972;2023-02-13T05:36:00;100517.91;;;2.31;74.01
41040;BME280;48586;50.122;18.972;2023-02-13T05:38:04;100518.28;;;2.26;74.22
41040;BME280;48586;50.122;18.972;2023-02-13T05:40:10;100520.19;;;2.24;74.39
41040;BME280;48586;50.122;18.972;2023-02-13T05:42:16;100520.19;;;2.24;74.39
41040;BME280;48586;50.122;18.972;2023-02-13T05:44:20;100521.63;;;2.28;74.43
41040;BME280;48586;50.122;18.972;2023-02-13T05:46:24;100522.00;;;2.23;74.25
41040;BME280;48586;50.122;18.972;2023-02-13T05:48:29;100516.06;;;2.21;74.55
41040;BME280;48586;50.122;18.972;2023-02-13T05:50:37;100519.19;;;2.15;74.77
41040;BME280;48586;50.122;18.972;2023-02-13T05:52:41;100512.13;;;2.16;75.29
41040;BME280;48586;50.122;18.972;2023-02-13T05:54:47;100512.44;;;2.22;75.35
41040;BME280;48586;50.122;18.972;2023-02-13T05:56:51;100504.19;;;2.27;74.94
41040;BME280;48586;50.122;18.972;2023-02-13T05:58:56;100516.25;;;2.30;74.64
41040;BME280;48586;50.122;18.972;2023-02-13T06:01:01;100519.56;;;2.32;74.42
41040;BME280;48586;50.122;18.972;2023-02-13T06:03:06;100518.50;;;2.34;74.65
41040;BME280;48586;50.122;18.972;2023-02-13T06:05:11;100515.19;;;2.42;74.44
41040;BME280;48586;50.122;18.972;2023-02-13T06:07:19;100514.50;;;2.40;73.72
41040;BME280;48586;50.122;18.972;2023-02-13T06:09:23;100512.00;;;2.38;74.13
41040;BME280;48586;50.122;18.972;2023-02-13T06:11:28;100519.50;;;2.43;74.38
41040;BME280;48586;50.122;18.972;2023-02-13T06:13:33;100524.63;;;2.44;73.63
41040;BME280;48586;50.122;18.972;2023-02-13T06:15:42;100521.41;;;2.41;73.71
41040;BME280;48586;50.122;18.972;2023-02-13T06:17:47;100520.44;;;2.42;73.89
41040;BME280;48586;50.122;18.972;2023-02-13T06:19:52;100523.34;;;2.39;73.63
41040;BME280;48586;50.122;18.972;2023-02-13T06:21:57;100534.47;;;2.42;73.94
41040;BME280;48586;50.122;18.972;2023-02-13T06:24:06;100525.59;;;2.43;73.60
41040;BME280;48586;50.122;18.972;2023-02-13T06:26:13;100530.31;;;2.49;73.49
41040;BME280;48586;50.122;18.972;2023-02-13T06:28:18;100536.41;;;2.50;73.20
41040;BME280;48586;50.122;18.972;2023-02-13T06:30:23;100544.88;;;2.54;73.82
41040;BME280;48586;50.122;18.972;2023-02-13T06:32:29;100540.34;;;2.56;73.05
41040;BME280;48586;50.122;18.972;2023-02-13T06:34:33;100544.50;;;2.58;73.30
41040;BME280;48586;50.122;18.972;2023-02-13T06:36:38;100539.22;;;2.58;73.07
41040;BME280;48586;50.122;18.972;2023-02-13T06:38:43;100531.09;;;2.61;73.58
41040;BME280;48586;50.122;18.972;2023-02-13T06:40:51;100536.53;;;2.69;73.61
41040;BME280;48586;50.122;18.972;2023-02-13T06:42:55;100536.25;;;2.72;72.73
41040;BME280;48586;50.122;18.972;2023-02-13T06:45:02;100533.34;;;2.76;72.60
41040;BME280;48586;50.122;18.972;2023-02-13T06:47:07;100530.72;;;2.76;71.88
41040;BME280;48586;50.122;18.972;2023-02-13T06:49:11;100537.41;;;2.80;71.90
41040;BME280;48586;50.122;18.972;2023-02-13T06:51:16;100540.75;;;2.82;72.15
41040;BME280;48586;50.122;18.972;2023-02-13T06:53:22;100543.09;;;2.85;71.95
41040;BME280;48586;50.122;18.972;2023-02-13T06:55:27;100536.75;;;2.87;71.73
41040;BME280;48586;50.122;18.972;2023-02-13T06:57:35;100538.41;;;2.88;71.42
41040;BME280;48586;50.122;18.972;2023-02-13T06:59:40;100535.91;;;2.87;71.45
41040;BME280;48586;50.122;18.972;2023-02-13T07:01:44;100531.88;;;2.83;71.54
41040;BME280;48586;50.122;18.972;2023-02-13T07:03:50;100541.84;;;2.79;71.36
41040;BME280;48586;50.122;18.972;2023-02-13T07:05:54;100543.59;;;2.69;71.57
41040;BME280;48586;50.122;18.972;2023-02-13T07:07:59;100533.19;;;2.67;72.08
41040;BME280;48586;50.122;18.972;2023-02-13T07:10:08;100534.28;;;2.65;71.96
41040;BME280;48586;50.122;18.972;2023-02-13T07:12:15;100537.75;;;2.65;72.48
41040;BME280;48586;50.122;18.972;2023-02-13T07:14:23;100545.66;;;2.65;72.21
41040;BME280;48586;50.122;18.972;2023-02-13T07:16:29;100540.38;;;2.65;72.17
41040;BME280;48586;50.122;18.972;2023-02-13T07:18:34;100545.66;;;2.65;72.04
41040;BME280;48586;50.122;18.972;2023-02-13T07:20:39;100548.38;;;2.64;72.26
41040;BME280;48586;50.122;18.972;2023-02-13T07:22:44;100541.22;;;2.66;72.11
41040;BME280;48586;50.122;18.972;2023-02-13T07:24:49;100538.34;;;2.69;72.23
41040;BME280;48586;50.122;18.972;2023-02-13T07:26:53;100538.03;;;2.72;71.91
41040;BME280;48586;50.122;18.972;2023-02-13T07:28:59;100536.72;;;2.78;72.07
41040;BME280;48586;50.122;18.972;2023-02-13T07:31:09;100543.50;;;2.80;71.76
41040;BME280;48586;50.122;18.972;2023-02-13T07:33:13;100537.13;;;2.83;71.19
41040;BME280;48586;50.122;18.972;2023-02-13T07:35:18;100544.91;;;2.84;71.18
41040;BME280;48586;50.122;18.972;2023-02-13T07:37:26;100539.88;;;2.81;71.13
41040;BME280;48586;50.122;18.972;2023-02-13T07:39:31;100537.72;;;2.86;71.85
41040;BME280;48586;50.122;18.972;2023-02-13T07:41:39;100537.75;;;2.96;71.55
41040;BME280;48586;50.122;18.972;2023-02-13T07:43:44;100535.28;;;3.04;71.65
41040;BME280;48586;50.122;18.972;2023-02-13T07:45:49;100540.97;;;3.09;71.46
41040;BME280;48586;50.122;18.972;2023-02-13T07:47:59;100537.28;;;3.12;70.42
41040;BME280;48586;50.122;18.972;2023-02-13T07:50:05;100540.75;;;3.12;70.54
41040;BME280;48586;50.122;18.972;2023-02-13T07:52:11;100539.91;;;3.12;70.05
41040;BME280;48586;50.122;18.972;2023-02-13T07:54:17;100546.66;;;3.05;70.10
41040;BME280;48586;50.122;18.972;2023-02-13T07:56:21;100543.44;;;3.01;70.53
41040;BME280;48586;50.122;18.972;2023-02-13T07:58:26;100535.81;;;2.98;70.50
41040;BME280;48586;50.122;18.972;2023-02-13T08:00:32;100540.81;;;3.01;70.88
41040;BME280;48586;50.122;18.972;2023-02-13T08:02:37;100528.06;;;3.06;71.65
41040;BME280;48586;50.122;18.972;2023-02-13T08:04:46;100535.66;;;3.20;71.25
41040;BME280;48586;50.122;18.972;2023-02-13T08:06:51;100541.06;;;3.29;70.94
41040;BME280;48586;50.122;18.972;2023-02-13T08:08:57;100538.72;;;3.35;70.73
41040;BME280;48586;50.122;18.972;2023-02-13T08:11:23;100530.41;;;3.40;70.45
41040;BME280;48586;50.122;18.972;2023-02-13T08:13:47;100536.50;;;3.50;70.00
41040;BME280;48586;50.122;18.972;2023-02-13T08:15:52;100532.94;;;3.51;69.71
41040;BME280;48586;50.122;18.972;2023-02-13T08:17:58;100536.09;;;3.55;70.09
41040;BME280;48586;50.122;18.972;2023-02-13T08:20:07;100527.41;;;3.64;70.13
41040;BME280;48586;50.122;18.972;2023-02-13T08:22:13;100527.94;;;3.67;69.76
41040;BME280;48586;50.122;18.972;2023-02-13T08:24:18;100531.44;;;3.68;69.27
41040;BME280;48586;50.122;18.972;2023-02-13T08:26:24;100533.22;;;3.67;69.57
41040;BME280;48586;50.122;18.972;2023-02-13T08:28:29;100534.34;;;3.74;69.77
41040;BME280;48586;50.122;18.972;2023-02-13T08:30:34;100535.56;;;3.80;69.42
41040;BME280;48586;50.122;18.972;2023-02-13T08:32:40;100528.53;;;3.81;69.07
41040;BME280;48586;50.122;18.972;2023-02-13T08:34:45;100529.88;;;3.85;69.38
41040;BME280;48586;50.122;18.972;2023-02-13T08:36:53;100537.25;;;3.91;69.69
41040;BME280;48586;50.122;18.972;2023-02-13T08:38:58;100539.06;;;4.00;69.53
41040;BME280;48586;50.122;18.972;2023-02-13T08:41:03;100542.78;;;3.97;69.05
41040;BME280;48586;50.122;18.972;2023-02-13T08:43:09;100548.78;;;3.99;69.30
41040;BME280;48586;50.122;18.972;2023-02-13T08:45:15;100537.66;;;4.06;69.46
41040;BME280;48586;50.122;18.972;2023-02-13T08:47:21;100538.06;;;4.11;68.78
41040;BME280;48586;50.122;18.972;2023-02-13T08:49:26;100537.50;;;4.17;69.02
41040;BME280;48586;50.122;18.972;2023-02-13T08:51:31;100541.97;;;4.16;68.72
41040;BME280;48586;50.122;18.972;2023-02-13T08:53:40;100537.38;;;4.18;69.13
41040;BME280;48586;50.122;18.972;2023-02-13T08:55:51;100538.31;;;4.27;69.35
41040;BME280;48586;50.122;18.972;2023-02-13T08:57:59;100535.56;;;4.19;68.93
41040;BME280;48586;50.122;18.972;2023-02-13T09:00:06;100542.94;;;4.15;68.91
41040;BME280;48586;50.122;18.972;2023-02-13T09:02:12;100529.59;;;4.17;69.75
41040;BME280;48586;50.122;18.972;2023-02-13T09:04:18;100534.47;;;4.12;69.69
41040;BME280;48586;50.122;18.972;2023-02-13T09:06:23;100530.03;;;4.12;70.48
41040;BME280;48586;50.122;18.972;2023-02-13T09:08:29;100535.41;;;4.11;70.40
41040;BME280;48586;50.122;18.972;2023-02-13T09:10:39;100524.34;;;4.07;70.21
41040;BME280;48586;50.122;18.972;2023-02-13T09:12:51;100527.94;;;4.06;71.07
41040;BME280;48586;50.122;18.972;2023-02-13T09:14:57;100532.41;;;4.15;71.80
41040;BME280;48586;50.122;18.972;2023-02-13T09:17:03;100541.78;;;4.28;71.36
41040;BME280;48586;50.122;18.972;2023-02-13T09:19:08;100540.69;;;4.30;70.99
41040;BME280;48586;50.122;18.972;2023-02-13T09:21:12;100533.06;;;4.37;70.54
41040;BME280;48586;50.122;18.972;2023-02-13T09:23:19;100537.63;;;4.35;69.94
41040;BME280;48586;50.122;18.972;2023-02-13T09:25:24;100541.50;;;4.31;69.75
41040;BME280;48586;50.122;18.972;2023-02-13T09:27:31;100545.97;;;4.30;69.87
41040;BME280;48586;50.122;18.972;2023-02-13T09:29:38;100546.00;;;4.20;70.38
41040;BME280;48586;50.122;18.972;2023-02-13T09:31:42;100540.00;;;4.28;71.34
41040;BME280;48586;50.122;18.972;2023-02-13T09:33:48;100539.56;;;4.23;70.49
41040;BME280;48586;50.122;18.972;2023-02-13T09:35:54;100550.84;;;4.25;71.16
41040;BME280;48586;50.122;18.972;2023-02-13T09:37:59;100544.59;;;4.26;71.36
41040;BME280;48586;50.122;18.972;2023-02-13T09:40:06;100545.69;;;4.33;71.39
41040;BME280;48586;50.122;18.972;2023-02-13T09:42:24;100534.16;;;4.34;71.20
41040;BME280;48586;50.122;18.972;2023-02-13T09:44:39;100546.66;;;4.42;71.21
41040;BME280;48586;50.122;18.972;2023-02-13T09:46:48;100536.75;;;4.44;71.59
41040;BME280;48586;50.122;18.972;2023-02-13T09:48:57;100527.03;;;4.44;71.48
41040;BME280;48586;50.122;18.972;2023-02-13T09:51:05;100533.97;;;4.55;71.61
41040;BME280;48586;50.122;18.972;2023-02-13T09:53:19;100531.28;;;4.65;71.76
41040;BME280;48586;50.122;18.972;2023-02-13T09:55:34;100533.78;;;4.66;70.83
41040;BME280;48586;50.122;18.972;2023-02-13T09:57:58;100530.59;;;4.72;69.96
41040;BME280;48586;50.122;18.972;2023-02-13T10:00:20;100520.97;;;4.81;70.04
41040;BME280;48586;50.122;18.972;2023-02-13T10:02:45;100531.53;;;4.81;69.39
41040;BME280;48586;50.122;18.972;2023-02-13T10:05:16;100529.31;;;4.77;69.58
41040;BME280;48586;50.122;18.972;2023-02-13T10:07:41;100538.47;;;4.82;69.78
41040;BME280;48586;50.122;18.972;2023-02-13T10:10:00;100528.88;;;4.81;69.85
41040;BME280;48586;50.122;18.972;2023-02-13T10:12:22;100525.81;;;4.86;70.27
41040;BME280;48586;50.122;18.972;2023-02-13T10:14:56;100530.00;;;4.79;70.12
41040;BME280;48586;50.122;18.972;2023-02-13T10:17:23;100526.69;;;4.77;70.36
41040;BME280;48586;50.122;18.972;2023-02-13T10:19:39;100516.41;;;4.73;70.48
41040;BME280;48586;50.122;18.972;2023-02-13T10:21:52;100523.78;;;4.70;70.68
41040;BME280;48586;50.122;18.972;2023-02-13T10:24:09;100516.84;;;4.69;70.28
41040;BME280;48586;50.122;18.972;2023-02-13T10:26:20;100519.63;;;4.58;70.17
41040;BME280;48586;50.122;18.972;2023-02-13T10:28:34;100517.16;;;4.56;71.35
41040;BME280;48586;50.122;18.972;2023-02-13T10:30:51;100519.78;;;4.56;71.04
41040;BME280;48586;50.122;18.972;2023-02-13T10:33:09;100505.78;;;4.56;72.09
41040;BME280;48586;50.122;18.972;2023-02-13T10:35:28;100514.22;;;4.59;72.74
41040;BME280;48586;50.122;18.972;2023-02-13T10:37:35;100505.63;;;4.57;72.65
41040;BME280;48586;50.122;18.972;2023-02-13T10:39:45;100507.44;;;4.57;72.71
41040;BME280;48586;50.122;18.972;2023-02-13T10:41:57;100494.81;;;4.51;72.19
41040;BME280;48586;50.122;18.972;2023-02-13T10:44:33;100488.28;;;4.45;72.38
41040;BME280;48586;50.122;18.972;2023-02-13T10:46:59;100482.06;;;4.36;72.97
41040;BME280;48586;50.122;18.972;2023-02-13T10:49:40;100492.03;;;4.52;73.48
41040;BME280;48586;50.122;18.972;2023-02-13T10:52:13;100485.19;;;4.59;73.07
41040;BME280;48586;50.122;18.972;2023-02-13T10:54:46;100478.88;;;4.70;72.95
41040;BME280;48586;50.122;18.972;2023-02-13T10:57:11;100476.25;;;4.70;72.18
41040;BME280;48586;50.122;18.972;2023-02-13T10:59:36;100465.69;;;4.70;71.84
41040;BME280;48586;50.122;18.972;2023-02-13T11:01:56;100472.56;;;4.63;71.63
41040;BME280;48586;50.122;18.972;2023-02-13T11:04:08;100468.13;;;4.54;71.99
41040;BME280;48586;50.122;18.972;2023-02-13T11:06:18;100469.81;;;4.55;71.86
41040;BME280;48586;50.122;18.972;2023-02-13T11:08:27;100469.22;;;4.61;71.92
41040;BME280;48586;50.122;18.972;2023-02-13T11:10:39;100464.88;;;4.69;71.64
41040;BME280;48586;50.122;18.972;2023-02-13T11:12:45;100462.66;;;4.65;70.81
41040;BME280;48586;50.122;18.972;2023-02-13T11:14:55;100460.91;;;4.56;70.94
41040;BME280;48586;50.122;18.972;2023-02-13T11:17:04;100467.28;;;4.53;71.80
41040;BME280;48586;50.122;18.972;2023-02-13T11:19:23;100462.06;;;4.43;71.93
41040;BME280;48586;50.122;18.972;2023-02-13T11:21:35;100460.41;;;4.42;72.23
41040;BME280;48586;50.122;18.972;2023-02-13T11:23:43;100459.16;;;4.37;72.33
41040;BME280;48586;50.122;18.972;2023-02-13T11:25:55;100451.78;;;4.40;72.71
41040;BME280;48586;50.122;18.972;2023-02-13T11:28:09;100459.38;;;4.53;72.94